createdAt,value
2022-08-22T00:01:49.053Z,100.00
2022-08-22T00:04:33.319Z,100.00
2022-08-22T00:07:16.079Z,100.00
2022-08-22T00:10:01.278Z,100.00
2022-08-22T00:12:48.483Z,100.00
2022-08-22T00:15:42.355Z,100.00
2022-08-22T00:18:13.409Z,100.00
2022-08-22T00:20:49.530Z,100.00
2022-08-22T00:23:22.873Z,100.00
2022-08-22T00:25:58.237Z,100.00
2022-08-22T00:28:37.029Z,100.00
2022-08-22T00:31:24.626Z,100.00
2022-08-22T00:34:22.662Z,100.00
2022-08-22T00:37:09.809Z,100.00
2022-08-22T00:39:45.880Z,100.00
2022-08-22T00:42:40.375Z,100.00
2022-08-22T00:45:32.336Z,100.00
2022-08-22T00:48:29.738Z,100.00
2022-08-22T00:51:13.724Z,100.00
2022-08-22T00:53:52.916Z,100.00
2022-08-22T00:56:47.437Z,100.00
2022-08-22T00:59:31.493Z,100.00
2022-08-22T01:02:11.131Z,100.00
2022-08-22T01:04:52.256Z,100.00
2022-08-22T01:07:38.123Z,100.00
2022-08-22T01:10:28.044Z,100.00
2022-08-22T01:13:13.050Z,100.00
2022-08-22T01:15:42.373Z,100.00
2022-08-22T01:18:11.957Z,100.00
2022-08-22T01:21:10.717Z,100.00
2022-08-22T01:23:45.789Z,100.00
2022-08-22T01:26:49.722Z,100.00
2022-08-22T01:29:31.399Z,100.00
2022-08-22T01:32:10.526Z,100.00
2022-08-22T01:34:54.868Z,100.00
2022-08-22T01:37:45.726Z,100.00
2022-08-22T01:40:53.578Z,100.00
2022-08-22T01:44:00.401Z,100.00
2022-08-22T01:46:36.366Z,100.00
2022-08-22T01:49:25.226Z,100.00
2022-08-22T01:51:59.069Z,100.00
2022-08-22T01:54:44.347Z,100.00
2022-08-22T01:57:12.296Z,100.00
2022-08-22T01:59:43.979Z,100.00
2022-08-22T02:02:32.085Z,100.00
2022-08-22T02:05:11.330Z,100.00
2022-08-22T02:07:40.587Z,100.00
2022-08-22T02:10:31.935Z,100.00
2022-08-22T02:13:30.076Z,100.00
2022-08-22T02:16:35.678Z,100.00
2022-08-22T02:19:30.945Z,100.00
2022-08-22T02:21:57.381Z,100.00
2022-08-22T02:24:32.822Z,100.00
2022-08-22T02:27:40.573Z,100.00
2022-08-22T02:30:07.323Z,100.00
2022-08-22T02:32:51.732Z,100.00
2022-08-22T02:35:30.059Z,100.00
2022-08-22T02:38:28.902Z,100.00
2022-08-22T02:41:18.448Z,100.00
2022-08-22T02:43:59.574Z,100.00
2022-08-22T02:46:47.047Z,100.00
2022-08-22T02:49:31.004Z,100.00
2022-08-22T02:52:11.732Z,100.00
2022-08-22T02:55:04.042Z,100.00
2022-08-22T02:57:40.278Z,100.00
2022-08-22T03:00:27.672Z,100.00
2022-08-22T03:02:59.340Z,100.00
2022-08-22T03:05:40.238Z,100.00
2022-08-22T03:08:29.220Z,100.00
2022-08-22T03:11:01.182Z,100.00
2022-08-22T03:13:37.582Z,100.00
2022-08-22T03:16:13.344Z,100.00
2022-08-22T03:18:59.088Z,100.00
2022-08-22T03:21:53.517Z,100.00
2022-08-22T03:24:31.384Z,100.00
2022-08-22T03:27:15.223Z,100.00
2022-08-22T03:30:04.902Z,100.00
2022-08-22T03:33:12.675Z,100.00
2022-08-22T03:35:42.279Z,100.00
2022-08-22T03:38:20.488Z,100.00
2022-08-22T03:41:17.928Z,100.00
2022-08-22T03:44:12.068Z,100.00
2022-08-22T03:46:50.322Z,100.00
2022-08-22T03:49:35.317Z,100.00
2022-08-22T03:53:01.445Z,100.00
2022-08-22T03:56:01.089Z,100.00
2022-08-22T03:58:53.824Z,100.00
2022-08-22T04:01:29.477Z,100.00
2022-08-22T04:04:05.068Z,100.00
2022-08-22T04:06:53.675Z,100.00
2022-08-22T04:09:47.620Z,100.00
2022-08-22T04:12:41.593Z,100.00
2022-08-22T04:15:08.044Z,100.00
2022-08-22T04:17:45.775Z,100.00
2022-08-22T04:20:40.362Z,100.00
2022-08-22T04:23:41.170Z,100.00
2022-08-22T04:26:21.205Z,100.00
2022-08-22T04:29:05.757Z,100.00
2022-08-22T04:31:46.309Z,100.00
2022-08-22T04:34:21.291Z,100.00
2022-08-22T04:36:56.593Z,100.00
2022-08-22T04:39:32.139Z,100.00
2022-08-22T04:42:32.146Z,100.00
2022-08-22T04:45:18.596Z,100.00
2022-08-22T04:47:54.244Z,100.00
2022-08-22T04:50:54.994Z,100.00
2022-08-22T04:53:47.898Z,100.00
2022-08-22T04:56:36.553Z,100.00
2022-08-22T04:59:16.468Z,100.00
2022-08-22T05:01:45.022Z,100.00
2022-08-22T05:04:20.202Z,100.00
2022-08-22T05:06:52.230Z,100.00
2022-08-22T05:09:26.024Z,100.00
2022-08-22T05:11:58.041Z,100.00
2022-08-22T05:14:40.133Z,100.00
2022-08-22T05:17:08.888Z,100.00
2022-08-22T05:19:40.123Z,100.00
2022-08-22T05:22:16.408Z,100.00
2022-08-22T05:24:48.422Z,100.00
2022-08-22T05:27:23.062Z,100.00
2022-08-22T05:29:54.478Z,100.00
2022-08-22T05:32:29.034Z,100.00
2022-08-22T05:35:02.137Z,100.00
2022-08-22T05:37:48.264Z,100.00
2022-08-22T05:40:21.565Z,100.00
2022-08-22T05:42:48.530Z,100.00
2022-08-22T05:45:18.269Z,100.00
2022-08-22T05:48:18.359Z,100.00
2022-08-22T05:50:51.104Z,100.00
2022-08-22T05:53:33.641Z,100.00
2022-08-22T05:56:48.353Z,100.00
2022-08-22T05:59:24.976Z,100.00
2022-08-22T06:02:48.310Z,100.00
2022-08-22T06:05:21.925Z,97.39
2022-08-22T06:07:51.222Z,95.93
2022-08-22T06:10:25.591Z,93.15
2022-08-22T06:12:54.755Z,90.37
2022-08-22T06:15:29.111Z,84.32
2022-08-22T06:18:05.229Z,81.81
2022-08-22T06:20:42.279Z,80.63
2022-08-22T06:23:15.846Z,77.10
2022-08-22T06:25:46.914Z,73.60
2022-08-22T06:28:20.158Z,73.10
2022-08-22T06:30:50.812Z,71.88
2022-08-22T06:33:24.756Z,71.45
2022-08-22T06:36:33.818Z,70.11
2022-08-22T06:39:25.155Z,64.64
2022-08-22T06:42:03.038Z,62.10
2022-08-22T06:44:38.323Z,59.60
2022-08-22T06:47:10.887Z,60.47
2022-08-22T06:49:40.026Z,63.17
2022-08-22T06:52:14.218Z,62.96
2022-08-22T06:54:51.559Z,57.06
2022-08-22T06:57:33.283Z,55.07
2022-08-22T07:00:05.383Z,49.35
2022-08-22T07:02:45.782Z,53.16
2022-08-22T07:05:18.979Z,54.55
2022-08-22T07:07:45.773Z,51.98
2022-08-22T07:10:16.644Z,49.81
2022-08-22T07:12:53.478Z,48.43
2022-08-22T07:15:41.576Z,47.75
2022-08-22T07:18:16.837Z,49.59
2022-08-22T07:20:49.487Z,49.03
2022-08-22T07:23:27.030Z,54.56
2022-08-22T07:26:17.026Z,58.33
2022-08-22T07:28:51.399Z,61.00
2022-08-22T07:31:39.554Z,61.87
2022-08-22T07:34:33.351Z,57.09
2022-08-22T07:37:07.977Z,59.73
2022-08-22T07:40:05.587Z,60.38
2022-08-22T07:42:57.978Z,61.69
2022-08-22T07:45:30.977Z,62.03
2022-08-22T07:48:09.902Z,64.18
2022-08-22T07:50:45.830Z,64.35
2022-08-22T07:53:20.781Z,66.12
2022-08-22T07:55:49.669Z,65.84
2022-08-22T07:58:18.088Z,66.52
2022-08-22T08:00:46.762Z,65.03
2022-08-22T08:03:13.645Z,65.07
2022-08-22T08:05:44.001Z,62.94
2022-08-22T08:08:24.677Z,62.12
2022-08-22T08:10:56.098Z,61.76
2022-08-22T08:13:35.371Z,63.48
2022-08-22T08:16:06.534Z,63.94
2022-08-22T08:18:35.391Z,65.77
2022-08-22T08:21:06.978Z,62.17
2022-08-22T08:23:41.456Z,58.63
2022-08-22T08:26:10.889Z,57.74
2022-08-22T08:28:47.512Z,54.54
2022-08-22T08:31:24.776Z,55.11
2022-08-22T08:33:58.367Z,54.09
2022-08-22T08:36:40.139Z,49.31
2022-08-22T08:39:12.595Z,46.64
2022-08-22T08:41:52.358Z,44.41
2022-08-22T08:44:23.764Z,43.81
2022-08-22T08:47:32.224Z,43.10
2022-08-22T08:50:26.094Z,42.98
2022-08-22T08:53:19.931Z,44.09
2022-08-22T08:55:56.318Z,43.80
2022-08-22T08:59:10.007Z,44.15
2022-08-22T09:02:01.673Z,44.19
2022-08-22T09:04:54.532Z,42.32
2022-08-22T09:07:49.394Z,40.09
2022-08-22T09:10:19.007Z,40.83
2022-08-22T09:13:12.266Z,38.77
2022-08-22T09:16:05.846Z,40.11
2022-08-22T09:18:55.924Z,38.32
2022-08-22T09:21:42.066Z,39.38
2022-08-22T09:24:51.799Z,39.56
2022-08-22T09:27:30.924Z,40.39
2022-08-22T09:30:18.791Z,40.42
2022-08-22T09:33:11.763Z,39.98
2022-08-22T09:35:59.074Z,37.64
2022-08-22T09:38:55.802Z,38.43
2022-08-22T09:42:00.451Z,37.64
2022-08-22T09:44:51.151Z,37.23
2022-08-22T09:47:26.866Z,36.80
2022-08-22T09:50:36.687Z,37.14
2022-08-22T09:53:30.259Z,39.61
2022-08-22T09:56:14.982Z,39.92
2022-08-22T09:59:13.652Z,38.18
2022-08-22T10:01:48.153Z,39.37
2022-08-22T10:04:53.381Z,38.58
2022-08-22T10:07:52.766Z,37.83
2022-08-22T10:10:26.307Z,38.02
2022-08-22T10:13:20.960Z,37.22
2022-08-22T10:16:03.270Z,37.61
2022-08-22T10:18:43.938Z,38.43
2022-08-22T10:21:33.737Z,37.60
2022-08-22T10:24:03.110Z,36.47
2022-08-22T10:26:48.799Z,38.50
2022-08-22T10:29:15.443Z,37.98
2022-08-22T10:31:58.554Z,37.31
2022-08-22T10:34:33.011Z,37.68
2022-08-22T10:37:11.606Z,35.49
2022-08-22T10:39:50.322Z,37.46
2022-08-22T10:42:36.411Z,37.79
2022-08-22T10:45:36.696Z,37.57
2022-08-22T10:48:08.798Z,36.74
2022-08-22T10:50:43.387Z,38.33
2022-08-22T10:53:34.624Z,36.53
2022-08-22T10:56:13.332Z,37.93
2022-08-22T10:58:56.123Z,38.74
2022-08-22T11:01:41.808Z,39.11
2022-08-22T11:04:28.247Z,39.27
2022-08-22T11:07:17.397Z,38.50
2022-08-22T11:09:56.997Z,38.40
2022-08-22T11:12:35.225Z,38.19
2022-08-22T11:15:15.276Z,37.89
2022-08-22T11:18:13.029Z,37.68
2022-08-22T11:20:45.910Z,38.24
2022-08-22T11:23:21.853Z,39.69
2022-08-22T11:26:14.544Z,40.28
2022-08-22T11:29:13.810Z,41.57
2022-08-22T11:31:51.332Z,42.25
2022-08-22T11:34:45.735Z,42.71
2022-08-22T11:37:42.532Z,44.30
2022-08-22T11:40:41.813Z,44.98
2022-08-22T11:43:34.798Z,46.10
2022-08-22T11:46:19.751Z,45.06
2022-08-22T11:48:59.402Z,44.04
2022-08-22T11:51:46.482Z,45.11
2022-08-22T11:54:42.338Z,43.92
2022-08-22T11:57:18.577Z,42.80
2022-08-22T11:59:45.003Z,42.76
2022-08-22T12:05:57.087Z,40.80
2022-08-22T12:08:33.403Z,40.91
2022-08-22T12:11:10.059Z,41.20
2022-08-22T12:14:02.355Z,39.54
2022-08-22T12:16:45.161Z,42.56
2022-08-22T12:19:32.803Z,42.50
2022-08-22T12:22:03.073Z,43.27
2022-08-22T12:24:51.272Z,42.50
2022-08-22T12:27:31.572Z,41.20
2022-08-22T12:30:14.183Z,41.57
2022-08-22T12:33:13.234Z,41.08
2022-08-22T12:35:51.127Z,42.02
2022-08-22T12:38:46.927Z,41.98
2022-08-22T12:41:13.391Z,41.51
2022-08-22T12:44:12.560Z,42.65
2022-08-22T12:47:11.357Z,41.59
2022-08-22T12:50:06.325Z,40.91
2022-08-22T12:52:57.969Z,41.25
2022-08-22T12:55:36.644Z,42.18
2022-08-22T12:58:07.491Z,42.99
2022-08-22T13:00:43.773Z,43.03
2022-08-22T13:03:24.075Z,42.88
2022-08-22T13:05:57.051Z,43.56
2022-08-22T13:08:31.408Z,43.66
2022-08-22T13:11:03.262Z,43.43
2022-08-22T13:13:45.141Z,45.16
2022-08-22T13:16:24.637Z,45.37
2022-08-22T13:19:07.700Z,45.68
2022-08-22T13:21:40.236Z,45.65
2022-08-22T13:24:16.933Z,43.66
2022-08-22T13:27:00.270Z,43.65
2022-08-22T13:29:51.963Z,43.57
2022-08-22T13:32:45.652Z,42.58
2022-08-22T13:35:31.558Z,42.16
2022-08-22T13:38:07.607Z,44.10
2022-08-22T13:40:44.158Z,42.21
2022-08-22T13:43:14.024Z,42.40
2022-08-22T13:45:55.541Z,42.41
2022-08-22T13:48:28.510Z,41.58
2022-08-22T13:51:12.043Z,41.69
2022-08-22T13:53:49.847Z,41.27
2022-08-22T13:56:36.770Z,40.84
2022-08-22T13:59:08.004Z,41.26
2022-08-22T14:01:50.673Z,41.21
2022-08-22T14:04:40.211Z,40.20
2022-08-22T14:07:07.068Z,38.89
2022-08-22T14:10:02.937Z,39.21
2022-08-22T14:13:03.956Z,39.15
2022-08-22T14:15:33.999Z,39.54
2022-08-22T14:18:30.387Z,41.32
2022-08-22T14:21:40.513Z,42.74
2022-08-22T14:24:16.878Z,42.77
2022-08-22T14:27:08.646Z,42.02
2022-08-22T14:29:52.478Z,43.77
2022-08-22T14:32:19.332Z,41.69
2022-08-22T14:35:05.856Z,42.55
2022-08-22T14:37:40.963Z,41.69
2022-08-22T14:40:13.392Z,42.31
2022-08-22T14:43:22.355Z,43.31
2022-08-22T14:46:02.036Z,43.70
2022-08-22T14:49:06.049Z,44.42
2022-08-22T14:51:33.778Z,44.95
2022-08-22T14:54:21.038Z,45.39
2022-08-22T14:56:50.050Z,46.61
2022-08-22T14:59:37.048Z,45.95
2022-08-22T15:02:13.635Z,47.24
2022-08-22T15:04:44.066Z,45.08
2022-08-22T15:07:21.933Z,44.93
2022-08-22T15:09:51.047Z,44.53
2022-08-22T15:12:32.183Z,44.39
2022-08-22T15:15:01.693Z,44.40
2022-08-22T15:17:51.044Z,45.81
2022-08-22T15:20:34.048Z,46.61
2022-08-22T15:23:15.102Z,47.40
2022-08-22T15:25:47.088Z,48.08
2022-08-22T15:28:14.442Z,48.65
2022-08-22T15:31:03.818Z,48.94
2022-08-22T15:33:40.146Z,49.88
2022-08-22T15:36:10.597Z,49.99
2022-08-22T15:38:48.056Z,50.70
2022-08-22T15:41:36.408Z,51.90
2022-08-22T15:44:32.712Z,52.11
2022-08-22T15:47:03.068Z,53.32
2022-08-22T15:49:36.230Z,53.77
2022-08-22T15:52:04.501Z,54.62
2022-08-22T15:54:32.535Z,54.55
2022-08-22T15:57:16.107Z,55.21
2022-08-22T15:59:54.788Z,54.57
2022-08-22T16:02:21.178Z,53.37
2022-08-22T16:04:51.696Z,53.11
2022-08-22T16:07:20.096Z,53.15
2022-08-22T16:09:49.257Z,53.61
2022-08-22T16:12:29.921Z,53.50
2022-08-22T16:14:57.024Z,53.67
2022-08-22T16:17:29.364Z,53.51
2022-08-22T16:20:08.041Z,54.53
2022-08-22T16:22:55.319Z,54.70
2022-08-22T16:25:41.635Z,55.56
2022-08-22T16:28:19.155Z,56.77
2022-08-22T16:30:52.361Z,56.04
2022-08-22T16:33:48.226Z,55.61
2022-08-22T16:36:14.574Z,56.94
2022-08-22T16:38:43.631Z,56.25
2022-08-22T16:41:48.478Z,58.03
2022-08-22T16:44:22.687Z,58.19
2022-08-22T16:46:51.103Z,58.85
2022-08-22T16:49:29.535Z,59.66
2022-08-22T16:52:14.630Z,59.15
2022-08-22T16:54:45.681Z,59.63
2022-08-22T16:57:14.855Z,60.15
2022-08-22T17:00:00.735Z,60.65
2022-08-22T17:02:44.509Z,61.40
2022-08-22T17:05:16.841Z,62.25
2022-08-22T17:07:52.334Z,62.77
2022-08-22T17:10:18.709Z,63.72
2022-08-22T17:13:06.249Z,64.41
2022-08-22T17:15:32.639Z,64.79
2022-08-22T17:18:12.097Z,64.79
2022-08-22T17:20:57.708Z,65.13
2022-08-22T17:23:46.386Z,65.16
2022-08-22T17:26:55.114Z,65.48
2022-08-22T17:29:27.440Z,65.31
2022-08-22T17:31:59.426Z,65.70
2022-08-22T17:34:38.985Z,64.52
2022-08-22T17:37:18.089Z,65.25
2022-08-22T17:39:57.862Z,65.63
2022-08-22T17:42:24.268Z,65.82
2022-08-22T17:44:56.714Z,65.84
2022-08-22T17:47:42.919Z,65.57
2022-08-22T17:50:13.257Z,65.79
2022-08-22T17:52:47.726Z,66.75
2022-08-22T17:55:19.502Z,65.99
2022-08-22T17:57:48.943Z,66.84
2022-08-22T18:00:18.643Z,67.29
2022-08-22T18:02:54.989Z,67.73
2022-08-22T18:05:36.880Z,67.33
2022-08-22T18:08:06.481Z,67.00
2022-08-22T18:10:35.915Z,67.28
2022-08-22T18:13:09.988Z,68.32
2022-08-22T18:15:42.484Z,68.60
2022-08-22T18:18:08.931Z,68.96
2022-08-22T18:20:54.243Z,68.30
2022-08-22T18:23:36.182Z,68.61
2022-08-22T18:26:07.300Z,69.04
2022-08-22T18:28:48.555Z,69.20
2022-08-22T18:31:28.726Z,68.08
2022-08-22T18:34:01.545Z,69.97
2022-08-22T18:36:33.696Z,70.48
2022-08-22T18:39:06.081Z,71.01
2022-08-22T18:41:45.640Z,71.19
2022-08-22T18:44:20.555Z,72.25
2022-08-22T18:46:51.585Z,71.43
2022-08-22T18:49:19.512Z,71.68
2022-08-22T18:52:18.445Z,71.57
2022-08-22T18:54:47.527Z,72.33
2022-08-22T18:57:32.679Z,72.67
2022-08-22T19:00:17.182Z,72.73
2022-08-22T19:02:55.929Z,72.34
2022-08-22T19:05:22.652Z,73.16
2022-08-22T19:07:59.880Z,74.09
2022-08-22T19:10:29.488Z,75.87
2022-08-22T19:13:08.133Z,74.99
2022-08-22T19:15:44.403Z,76.18
2022-08-22T19:18:29.177Z,76.22
2022-08-22T19:21:33.588Z,75.85
2022-08-22T19:24:00.329Z,74.99
2022-08-22T19:26:29.787Z,77.59
2022-08-22T19:28:58.021Z,78.16
2022-08-22T19:31:24.420Z,78.63
2022-08-22T19:34:09.648Z,77.54
2022-08-22T19:36:36.204Z,78.75
2022-08-22T19:39:10.233Z,78.89
2022-08-22T19:41:39.400Z,79.36
2022-08-22T19:44:10.471Z,79.96
2022-08-22T19:46:38.237Z,81.03
2022-08-22T19:49:06.376Z,80.66
2022-08-22T19:51:33.633Z,80.91
2022-08-22T19:54:23.161Z,80.69
2022-08-22T19:56:52.397Z,82.82
2022-08-22T19:59:25.623Z,83.63
2022-08-22T20:02:03.768Z,83.82
2022-08-22T20:04:48.747Z,83.60
2022-08-22T20:07:36.877Z,84.48
2022-08-22T20:10:08.622Z,84.08
2022-08-22T20:12:39.333Z,84.78
2022-08-22T20:15:32.198Z,84.04
2022-08-22T20:18:47.343Z,83.82
2022-08-22T20:20:59.794Z,83.90
2022-08-22T20:23:30.780Z,84.66
2022-08-22T20:25:57.992Z,85.00
2022-08-22T20:28:31.680Z,82.82
2022-08-22T20:31:00.158Z,82.26
2022-08-22T20:33:29.412Z,82.89
2022-08-22T20:35:59.116Z,83.16
2022-08-22T20:38:55.459Z,84.04
2022-08-22T20:41:26.142Z,83.31
2022-08-22T20:44:02.421Z,83.66
2022-08-22T20:46:43.813Z,83.72
2022-08-22T20:49:23.527Z,85.03
2022-08-22T20:51:57.767Z,85.54
2022-08-22T20:54:26.077Z,85.87
2022-08-22T20:56:57.407Z,85.19
2022-08-22T20:59:38.371Z,87.75
2022-08-22T21:02:25.005Z,86.82
2022-08-22T21:04:57.563Z,86.52
2022-08-22T21:07:26.328Z,86.48
2022-08-22T21:10:20.153Z,86.55
2022-08-22T21:13:02.521Z,85.63
2022-08-22T21:15:29.727Z,84.85
2022-08-22T21:17:56.142Z,84.45
2022-08-22T21:20:22.719Z,85.25
2022-08-22T21:22:51.473Z,84.50
2022-08-22T21:25:17.997Z,84.21
2022-08-22T21:27:46.607Z,84.77
2022-08-22T21:30:20.468Z,85.58
2022-08-22T21:32:51.153Z,86.56
2022-08-22T21:35:27.083Z,85.93
2022-08-22T21:37:53.723Z,86.32
2022-08-22T21:40:23.013Z,87.16
2022-08-22T21:43:21.944Z,88.95
2022-08-22T21:45:48.338Z,89.68
2022-08-22T21:48:34.302Z,90.37
2022-08-22T21:51:29.955Z,88.92
2022-08-22T21:54:17.708Z,87.61
2022-08-22T21:56:45.027Z,87.13
2022-08-22T21:59:26.184Z,87.67
2022-08-22T22:02:39.646Z,88.10
2022-08-22T22:05:24.117Z,87.58
2022-08-22T22:07:50.473Z,88.35
2022-08-22T22:10:17.575Z,89.02
2022-08-22T22:12:45.075Z,89.19
2022-08-22T22:15:13.744Z,88.98
2022-08-22T22:17:40.219Z,89.84
2022-08-22T22:20:07.083Z,89.82
2022-08-22T22:22:33.441Z,89.22
2022-08-22T22:25:04.168Z,89.33
2022-08-22T22:27:30.571Z,89.87
2022-08-22T22:29:56.939Z,89.96
2022-08-22T22:32:23.308Z,87.33
2022-08-22T22:34:50.133Z,86.82
2022-08-22T22:37:16.722Z,87.14
2022-08-22T22:39:43.273Z,87.13
2022-08-22T22:42:09.859Z,87.32
2022-08-22T22:44:36.307Z,87.98
2022-08-22T22:47:02.982Z,89.28
2022-08-22T22:49:30.306Z,89.15
2022-08-22T22:51:57.007Z,89.58
2022-08-22T22:54:27.521Z,90.24
2022-08-22T22:56:56.226Z,89.87
2022-08-22T22:59:25.430Z,89.09
2022-08-22T23:02:03.641Z,88.50
2022-08-22T23:04:30.510Z,88.58
2022-08-22T23:06:56.970Z,89.03
2022-08-22T23:09:37.981Z,89.89
2022-08-22T23:12:05.775Z,90.73
2022-08-22T23:14:32.893Z,92.32
2022-08-22T23:16:59.711Z,92.19
2022-08-22T23:19:27.065Z,92.92
2022-08-22T23:21:55.699Z,92.68
2022-08-22T23:24:22.129Z,93.83
2022-08-22T23:26:48.515Z,94.87
2022-08-22T23:29:14.877Z,94.20
2022-08-22T23:31:58.124Z,94.55
2022-08-22T23:34:32.943Z,95.49
2022-08-22T23:37:00.268Z,94.94
2022-08-22T23:39:27.593Z,94.62
2022-08-22T23:41:54.435Z,92.76
2022-08-22T23:44:22.413Z,93.72
2022-08-22T23:46:48.928Z,93.67
2022-08-22T23:49:15.987Z,93.26
2022-08-22T23:51:43.143Z,93.10
2022-08-22T23:54:10.910Z,93.62
2022-08-22T23:56:41.531Z,94.32
2022-08-22T23:59:09.400Z,93.51
